Time;durP1;ratioP1;P1;durP2;ratioP2;P2;SDS_P1;SDS_P2;PMS_P1;PMS_P2;Temp;Humidity;BMP_temperature;BMP_pressure;BME280_temperature;BME280_humidity;BME280_pressure;Samples;Min_cycle;Max_cycle;Signal;HPM_P1;HPM_P2
2022/12/29 00:01:33;;;;;;;4.82;3.97;;;9.10;99.90;;;;;;4968646;28;20041;-79
2022/12/29 00:03:59;;;;;;;5.72;4.57;;;9.10;99.90;;;;;;4966231;28;20449;-77
2022/12/29 00:06:25;;;;;;;7.78;3.67;;;9.20;99.90;;;;;;4968705;28;20079;-77
2022/12/29 00:08:51;;;;;;;6.72;4.13;;;9.10;99.90;;;;;;4968180;28;20524;-76
2022/12/29 00:11:21;;;;;;;5.30;4.45;;;9.20;99.90;;;;;;4968118;28;20039;-77
2022/12/29 00:16:33;;;;;;;7.82;5.57;;;9.20;99.90;;;;;;4968292;28;20058;-80
2022/12/29 00:18:59;;;;;;;5.28;4.30;;;9.20;99.90;;;;;;4962159;28;20410;-77
2022/12/29 00:35:23;;;;;;;5.50;4.70;;;9.30;99.90;;;;;;4968084;28;20425;-78
2022/12/29 00:46:02;;;;;;;6.93;5.32;;;9.40;99.90;;;;;;4967281;28;20038;-76
2022/12/29 00:51:13;;;;;;;6.05;4.93;;;9.40;99.90;;;;;;4965741;28;20259;-77
2022/12/29 00:53:38;;;;;;;5.05;4.55;;;9.40;99.90;;;;;;4968017;28;20113;-76
2022/12/29 00:56:04;;;;;;;5.88;5.18;;;9.30;99.90;;;;;;4964867;28;20197;-76
2022/12/29 00:58:30;;;;;;;8.20;5.20;;;9.40;99.90;;;;;;4967553;28;20051;-79
2022/12/29 01:01:07;;;;;;;5.55;4.68;;;9.40;99.90;;;;;;4967039;28;20117;-76
2022/12/29 01:03:35;;;;;;;6.97;6.38;;;9.40;99.90;;;;;;4966289;28;20043;-78
2022/12/29 01:06:02;;;;;;;7.13;4.60;;;9.40;99.90;;;;;;4967288;28;20066;-76
2022/12/29 01:08:28;;;;;;;5.95;4.53;;;9.40;99.90;;;;;;4982759;28;20043;-77
2022/12/29 01:11:06;;;;;;;8.30;5.28;;;9.40;99.90;;;;;;4966245;28;20039;-77
2022/12/29 01:13:31;;;;;;;5.10;4.57;;;9.40;99.90;;;;;;4967487;28;20046;-76
2022/12/29 01:15:58;;;;;;;7.07;5.05;;;9.40;99.90;;;;;;4965723;28;20034;-77
2022/12/29 01:18:24;;;;;;;7.22;4.82;;;9.40;99.90;;;;;;4967271;28;20050;-77
2022/12/29 01:20:50;;;;;;;6.45;4.18;;;9.50;99.90;;;;;;4966718;28;20086;-77
2022/12/29 01:23:16;;;;;;;5.07;4.30;;;9.40;99.90;;;;;;4963444;28;20493;-78
2022/12/29 01:25:42;;;;;;;6.70;4.95;;;9.50;99.90;;;;;;4980852;28;20054;-76
2022/12/29 01:28:08;;;;;;;9.93;4.38;;;9.40;99.90;;;;;;4966915;28;20456;-79
2022/12/29 01:30:36;;;;;;;5.70;4.30;;;9.50;99.90;;;;;;4950010;28;20076;-77
2022/12/29 01:33:03;;;;;;;4.80;4.35;;;9.40;99.90;;;;;;4967116;28;20185;-79
2022/12/29 01:35:28;;;;;;;7.55;4.22;;;9.40;99.90;;;;;;4964371;28;20093;-76
2022/12/29 01:37:54;;;;;;;5.95;5.35;;;9.40;99.90;;;;;;4964775;28;20106;-79
2022/12/29 01:40:20;;;;;;;4.60;3.90;;;9.40;99.90;;;;;;4964752;28;20050;-78
2022/12/29 01:42:45;;;;;;;5.25;4.28;;;9.50;99.90;;;;;;4966056;28;20506;-79
2022/12/29 01:45:13;;;;;;;7.18;4.07;;;9.40;99.90;;;;;;4966459;28;20038;-78
2022/12/29 01:47:48;;;;;;;6.03;3.22;;;9.40;99.90;;;;;;4967313;28;20042;-77
2022/12/29 01:50:37;;;;;;;5.43;4.82;;;9.50;99.90;;;;;;4950338;28;20035;-77
2022/12/29 01:53:05;;;;;;;5.22;3.78;;;9.50;99.90;;;;;;4967455;28;20069;-78
2022/12/29 01:55:35;;;;;;;8.63;5.65;;;9.40;99.90;;;;;;4966565;28;20588;-77
2022/12/29 01:58:04;;;;;;;6.53;5.15;;;9.40;99.90;;;;;;4967378;28;20047;-78
2022/12/29 02:00:30;;;;;;;8.98;6.10;;;9.40;99.90;;;;;;4966679;28;20173;-76
2022/12/29 02:02:55;;;;;;;8.68;5.05;;;9.40;99.90;;;;;;4967506;28;20117;-77
2022/12/29 02:05:30;;;;;;;6.43;5.00;;;9.40;99.90;;;;;;4967312;28;20055;-77
2022/12/29 02:07:56;;;;;;;6.85;4.47;;;9.40;99.90;;;;;;4966121;28;20118;-78
2022/12/29 02:10:24;;;;;;;4.97;4.18;;;9.40;99.90;;;;;;4966251;28;20118;-77
2022/12/29 02:12:50;;;;;;;5.78;4.03;;;9.40;99.90;;;;;;4967592;28;20061;-77
2022/12/29 02:15:17;;;;;;;7.60;4.70;;;9.40;99.90;;;;;;4966733;28;20069;-77
2022/12/29 02:18:04;;;;;;;7.10;3.65;;;9.40;99.90;;;;;;4967602;28;20492;-77
2022/12/29 02:20:52;;;;;;;5.20;2.17;;;9.40;99.90;;;;;;4968927;28;20117;-76
2022/12/29 02:23:42;;;;;;;4.57;1.90;;;9.40;99.90;;;;;;4954048;28;20043;-77
2022/12/29 02:26:43;;;;;;;2.65;1.60;;;9.40;99.90;;;;;;4968710;28;20051;-78
2022/12/29 02:29:17;;;;;;;1.02;0.90;;;9.30;99.90;;;;;;5002496;28;20047;-77
2022/12/29 02:32:00;;;;;;;1.45;1.27;;;9.30;99.90;;;;;;4970994;28;20433;-77
2022/12/29 02:34:39;;;;;;;0.85;0.43;;;9.30;99.90;;;;;;4970924;28;20038;-77
2022/12/29 02:37:24;;;;;;;0.90;0.70;;;9.30;99.90;;;;;;4970475;28;20517;-79
2022/12/29 02:40:10;;;;;;;0.43;0.43;;;9.30;99.90;;;;;;4970151;28;20053;-81
2022/12/29 02:42:50;;;;;;;0.77;0.77;;;9.30;99.90;;;;;;4951880;28;20435;-77
2022/12/29 02:45:36;;;;;;;0.82;0.50;;;9.30;99.90;;;;;;4955232;28;20049;-77
2022/12/29 02:48:07;;;;;;;1.55;1.17;;;9.30;99.90;;;;;;4953436;28;20448;-80
2022/12/29 02:50:58;;;;;;;1.45;1.27;;;9.30;99.90;;;;;;4970747;28;20134;-78
2022/12/29 02:56:10;;;;;;;1.60;0.70;;;9.30;99.90;;;;;;4969150;28;20109;-77
2022/12/29 02:58:36;;;;;;;1.25;0.80;;;9.20;99.90;;;;;;4970698;28;20493;-76
2022/12/29 03:01:39;;;;;;;2.15;1.55;;;9.20;99.90;;;;;;4970065;28;20133;-77
2022/12/29 03:04:17;;;;;;;3.85;2.83;;;9.20;99.90;;;;;;4970143;28;20418;-78
2022/12/29 03:07:09;;;;;;;3.78;2.85;;;9.10;99.90;;;;;;4970175;28;20054;-78
2022/12/29 03:09:50;;;;;;;2.90;2.17;;;9.10;99.90;;;;;;4970351;28;20127;-76
2022/12/29 03:12:24;;;;;;;7.30;2.40;;;9.00;99.90;;;;;;4970855;28;20042;-77
2022/12/29 03:18:01;;;;;;;3.83;2.30;;;9.00;99.90;;;;;;4970185;28;20086;-79
2022/12/29 03:20:38;;;;;;;7.15;2.38;;;9.00;99.90;;;;;;4970013;28;20054;-77
2022/12/29 03:23:06;;;;;;;5.03;3.15;;;9.00;99.90;;;;;;4969690;28;20468;-77
2022/12/29 03:25:43;;;;;;;4.75;2.25;;;9.00;99.90;;;;;;4967959;28;20051;-76
2022/12/29 03:28:13;;;;;;;7.78;2.25;;;9.00;99.90;;;;;;4969802;28;20047;-80
2022/12/29 03:30:41;;;;;;;7.03;2.58;;;8.90;99.90;;;;;;4970008;28;20154;-76
2022/12/29 03:33:10;;;;;;;14.82;2.08;;;8.90;99.90;;;;;;4969950;28;20047;-79
2022/12/29 03:35:38;;;;;;;11.55;2.78;;;8.90;99.90;;;;;;4993327;28;20086;-76
2022/12/29 03:38:15;;;;;;;4.25;2.08;;;8.90;99.90;;;;;;4969860;28;20066;-77
2022/12/29 03:40:44;;;;;;;5.38;2.38;;;8.90;99.90;;;;;;4969211;28;20117;-77
2022/12/29 03:43:11;;;;;;;11.40;2.75;;;8.90;99.90;;;;;;4969526;28;20138;-77
2022/12/29 03:45:38;;;;;;;7.45;3.67;;;8.90;99.90;;;;;;4968720;28;20047;-77
2022/12/29 03:48:04;;;;;;;5.25;1.42;;;8.80;99.90;;;;;;4969336;28;20458;-77
2022/12/29 03:50:29;;;;;;;4.40;1.38;;;8.80;99.90;;;;;;4970043;28;20046;-76
2022/12/29 03:52:55;;;;;;;2.72;1.73;;;8.80;99.90;;;;;;4969382;28;20129;-77
2022/12/29 03:55:20;;;;;;;5.00;1.60;;;8.80;99.90;;;;;;4968296;28;20066;-76
2022/12/29 03:57:46;;;;;;;5.93;1.10;;;8.80;99.90;;;;;;4969596;28;20106;-78
2022/12/29 04:00:12;;;;;;;10.80;1.42;;;8.70;99.90;;;;;;4969376;28;20038;-77
2022/12/29 04:02:38;;;;;;;6.97;2.30;;;8.70;99.90;;;;;;4969322;28;20072;-78
2022/12/29 04:05:04;;;;;;;8.10;1.20;;;8.70;99.90;;;;;;4969295;28;20408;-76
2022/12/29 04:07:30;;;;;;;1.10;1.00;;;8.70;99.90;;;;;;4969389;28;20130;-77
2022/12/29 04:09:55;;;;;;;2.25;1.30;;;8.70;99.90;;;;;;4966913;28;20134;-77
2022/12/29 04:12:21;;;;;;;3.42;1.40;;;8.70;99.90;;;;;;4969229;28;20047;-77
2022/12/29 04:14:47;;;;;;;6.10;2.15;;;8.70;99.90;;;;;;4969635;28;20085;-77
2022/12/29 04:17:12;;;;;;;3.03;1.50;;;8.70;99.90;;;;;;4967467;28;20043;-77
2022/12/29 04:19:38;;;;;;;4.40;1.25;;;8.70;99.90;;;;;;4969011;28;20082;-79
2022/12/29 04:22:03;;;;;;;4.65;1.40;;;8.60;99.90;;;;;;4969051;28;20105;-77
2022/12/29 04:24:29;;;;;;;3.72;1.73;;;8.60;99.90;;;;;;4967732;28;20042;-77
2022/12/29 04:26:54;;;;;;;3.15;1.30;;;8.60;99.90;;;;;;4966713;28;20042;-77
2022/12/29 04:29:20;;;;;;;3.60;2.22;;;8.60;99.90;;;;;;4968893;28;20055;-76
2022/12/29 04:31:46;;;;;;;7.82;3.38;;;8.60;99.90;;;;;;4967672;28;20051;-77
2022/12/29 04:34:11;;;;;;;12.90;4.05;;;8.50;99.90;;;;;;4968848;28;20053;-77
2022/12/29 04:36:38;;;;;;;10.77;2.72;;;8.50;99.90;;;;;;4967421;28;20058;-76
2022/12/29 04:39:05;;;;;;;15.05;2.42;;;8.50;99.90;;;;;;4968453;28;20497;-76
2022/12/29 04:41:30;;;;;;;12.43;3.08;;;8.50;99.90;;;;;;4967548;28;20097;-77
2022/12/29 04:43:56;;;;;;;6.70;3.30;;;8.50;99.90;;;;;;4966965;28;20074;-77
2022/12/29 04:46:22;;;;;;;13.05;3.97;;;8.50;99.90;;;;;;4968400;28;20500;-78
2022/12/29 04:48:47;;;;;;;7.93;2.78;;;8.50;99.90;;;;;;4969191;28;20505;-76
2022/12/29 04:51:13;;;;;;;12.88;3.50;;;8.50;99.90;;;;;;4967105;28;20852;-79
2022/12/29 04:53:38;;;;;;;6.18;3.00;;;8.50;99.90;;;;;;4968618;28;20121;-77
2022/12/29 04:56:04;;;;;;;10.35;2.67;;;8.50;99.90;;;;;;4966978;28;20513;-77
2022/12/29 04:58:30;;;;;;;22.85;3.55;;;8.50;99.90;;;;;;4968354;28;20050;-77
2022/12/29 05:00:55;;;;;;;5.70;3.40;;;8.50;99.90;;;;;;4967958;28;20445;-78
2022/12/29 05:03:21;;;;;;;27.73;3.88;;;8.50;99.90;;;;;;4968217;28;20121;-78
2022/12/29 05:05:47;;;;;;;9.63;3.22;;;8.50;99.90;;;;;;4968699;28;20081;-77
2022/12/29 05:08:12;;;;;;;27.40;4.20;;;8.50;99.90;;;;;;4968120;28;20477;-80
2022/12/29 05:10:38;;;;;;;17.95;4.20;;;8.60;99.90;;;;;;4967282;28;20113;-76
2022/12/29 05:13:04;;;;;;;10.48;3.35;;;8.60;99.90;;;;;;4967771;28;20129;-76
2022/12/29 05:15:29;;;;;;;12.25;3.13;;;8.60;99.90;;;;;;4967922;28;20110;-77
2022/12/29 05:17:55;;;;;;;7.55;2.72;;;8.60;99.90;;;;;;4967958;28;20038;-76
2022/12/29 05:20:21;;;;;;;13.68;3.05;;;8.60;99.90;;;;;;4968294;28;20134;-78
2022/12/29 05:22:46;;;;;;;8.73;3.58;;;8.60;99.90;;;;;;4968248;28;20401;-77
2022/12/29 05:25:12;;;;;;;6.30;3.13;;;8.60;99.90;;;;;;4966457;28;20042;-79
2022/12/29 05:27:37;;;;;;;13.63;4.30;;;8.60;99.90;;;;;;4955636;28;20040;-77
2022/12/29 05:30:03;;;;;;;18.88;4.30;;;8.50;99.90;;;;;;4967859;28;20594;-77
2022/12/29 05:32:29;;;;;;;6.32;3.33;;;8.60;99.90;;;;;;4968124;28;20043;-77
2022/12/29 05:34:54;;;;;;;16.65;3.90;;;8.50;99.90;;;;;;4966307;28;20122;-76
2022/12/29 05:37:20;;;;;;;13.13;3.72;;;8.50;99.90;;;;;;4967986;28;20512;-79
2022/12/29 05:39:45;;;;;;;13.48;3.65;;;8.50;99.90;;;;;;4967359;28;20115;-77
2022/12/29 05:42:11;;;;;;;24.13;4.95;;;8.50;99.90;;;;;;4966332;28;20091;-77
2022/12/29 05:44:37;;;;;;;11.57;4.22;;;8.50;99.90;;;;;;4966400;28;20421;-77
2022/12/29 05:47:02;;;;;;;9.57;2.92;;;8.50;99.90;;;;;;4967433;28;20174;-78
2022/12/29 05:49:28;;;;;;;8.43;2.78;;;8.60;99.90;;;;;;4966470;28;20047;-77
2022/12/29 05:51:54;;;;;;;8.70;2.35;;;8.50;99.90;;;;;;4966470;28;20482;-77
2022/12/29 05:54:19;;;;;;;5.45;2.15;;;8.60;99.90;;;;;;4967966;28;20038;-78
2022/12/29 05:56:45;;;;;;;11.30;2.70;;;8.60;99.90;;;;;;4971381;28;20138;-77
2022/12/29 05:59:10;;;;;;;8.73;2.85;;;8.60;99.90;;;;;;4971048;28;20054;-77
2022/12/29 06:01:36;;;;;;;10.57;2.67;;;8.60;99.90;;;;;;4971062;28;20062;-79
2022/12/29 06:04:02;;;;;;;13.27;3.42;;;8.60;99.90;;;;;;4971366;28;20093;-76
2022/12/29 06:06:27;;;;;;;10.82;3.58;;;8.50;99.90;;;;;;4970976;28;20031;-76
2022/12/29 06:08:53;;;;;;;14.65;3.63;;;8.50;99.90;;;;;;4971367;28;20078;-77
2022/12/29 06:11:19;;;;;;;16.13;2.80;;;8.50;99.90;;;;;;4970563;28;20373;-81
2022/12/29 06:13:44;;;;;;;10.32;3.67;;;8.50;99.90;;;;;;4970484;28;20093;-77
2022/12/29 06:16:10;;;;;;;8.05;3.45;;;8.50;99.90;;;;;;4971570;28;20070;-76
2022/12/29 06:18:35;;;;;;;7.68;2.95;;;8.50;99.90;;;;;;4971450;28;20126;-76
2022/12/29 06:21:03;;;;;;;13.27;4.03;;;8.50;99.90;;;;;;4969650;28;20387;-77
2022/12/29 06:23:29;;;;;;;22.55;4.07;;;8.50;99.90;;;;;;4971451;28;20082;-76
2022/12/29 06:25:55;;;;;;;13.63;4.18;;;8.40;99.90;;;;;;4969926;28;20050;-76
2022/12/29 06:28:20;;;;;;;13.27;4.40;;;8.40;99.90;;;;;;4952118;28;20089;-78
2022/12/29 06:30:46;;;;;;;11.57;4.07;;;8.40;99.90;;;;;;4965038;28;20388;-77
2022/12/29 06:33:12;;;;;;;17.73;4.60;;;8.40;99.90;;;;;;4969426;28;20050;-77
2022/12/29 06:35:38;;;;;;;9.98;3.65;;;8.40;99.90;;;;;;4970919;28;20034;-76
2022/12/29 06:38:04;;;;;;;8.10;4.35;;;8.40;99.90;;;;;;4970459;28;20510;-75
2022/12/29 06:40:29;;;;;;;7.88;3.65;;;8.40;99.90;;;;;;4969926;28;20046;-76
2022/12/29 06:42:55;;;;;;;11.88;3.45;;;8.40;99.90;;;;;;4969772;28;20402;-77
2022/12/29 06:45:21;;;;;;;6.07;3.40;;;8.40;99.90;;;;;;4971089;28;20047;-76
2022/12/29 06:47:46;;;;;;;10.43;4.63;;;8.30;99.90;;;;;;4969562;28;20549;-78
2022/12/29 06:50:12;;;;;;;8.63;4.43;;;8.30;99.90;;;;;;4970727;28;20047;-76
2022/12/29 06:52:38;;;;;;;14.68;4.95;;;8.40;99.90;;;;;;4970788;28;20046;-76
2022/12/29 06:55:04;;;;;;;11.68;3.05;;;8.30;99.90;;;;;;4968224;28;20078;-77
2022/12/29 06:57:29;;;;;;;13.68;3.90;;;8.30;99.90;;;;;;4970249;28;20074;-76
2022/12/29 06:59:58;;;;;;;9.32;4.43;;;8.40;99.90;;;;;;4970241;28;20486;-77
2022/12/29 07:02:25;;;;;;;9.32;2.97;;;8.40;99.90;;;;;;4970606;28;20390;-77
2022/12/29 07:04:52;;;;;;;11.15;2.88;;;8.40;99.90;;;;;;4969786;28;20042;-76
2022/12/29 07:07:19;;;;;;;13.57;4.88;;;8.40;99.90;;;;;;4970712;28;20074;-76
2022/12/29 07:09:45;;;;;;;17.70;5.07;;;8.40;99.90;;;;;;4968886;28;20043;-77
2022/12/29 07:12:10;;;;;;;13.30;3.92;;;8.40;99.90;;;;;;4969644;28;20046;-76
2022/12/29 07:14:36;;;;;;;11.00;4.25;;;8.40;99.90;;;;;;4970229;28;20508;-77
2022/12/29 07:17:05;;;;;;;8.68;3.15;;;8.40;99.90;;;;;;4968333;28;20058;-76
2022/12/29 07:19:30;;;;;;;13.85;5.55;;;8.40;99.90;;;;;;4970208;28;20133;-77
2022/12/29 07:21:56;;;;;;;12.75;5.93;;;8.50;99.90;;;;;;4970043;28;20493;-78
2022/12/29 07:24:22;;;;;;;7.13;3.75;;;8.50;99.90;;;;;;4968197;28;20397;-77
2022/12/29 07:26:47;;;;;;;26.60;4.45;;;8.50;99.90;;;;;;4967798;28;20501;-77
2022/12/29 07:29:13;;;;;;;24.02;6.15;;;8.50;99.90;;;;;;4969611;28;20512;-76
2022/12/29 07:31:38;;;;;;;12.95;3.63;;;8.50;99.90;;;;;;4968990;28;20097;-79
2022/12/29 07:34:04;;;;;;;9.10;3.85;;;8.50;99.90;;;;;;4968508;28;20074;-77
2022/12/29 07:36:30;;;;;;;6.95;3.65;;;8.50;99.90;;;;;;4969927;28;20043;-76
2022/12/29 07:38:55;;;;;;;21.05;5.15;;;8.50;99.90;;;;;;4968385;28;20038;-77
2022/12/29 07:41:21;;;;;;;16.77;4.10;;;8.50;99.90;;;;;;4968913;28;20088;-76
2022/12/29 07:43:48;;;;;;;16.77;4.55;;;8.60;99.90;;;;;;4969980;28;20425;-78
2022/12/29 07:46:14;;;;;;;14.05;4.25;;;8.60;99.90;;;;;;4968557;28;20055;-77
2022/12/29 07:48:40;;;;;;;16.35;4.18;;;8.60;99.90;;;;;;4984460;28;20371;-77
2022/12/29 07:51:06;;;;;;;13.45;3.72;;;8.60;99.90;;;;;;4969600;28;20090;-80
2022/12/29 07:53:32;;;;;;;17.90;5.93;;;8.60;99.90;;;;;;4968144;28;20045;-81
2022/12/29 07:55:57;;;;;;;10.23;5.03;;;8.60;99.90;;;;;;4967017;28;20046;-79
2022/12/29 07:58:23;;;;;;;10.88;3.55;;;8.60;99.90;;;;;;4969210;28;20402;-81
2022/12/29 08:00:53;;;;;;;22.52;4.13;;;8.60;99.90;;;;;;4968538;28;20397;-81
2022/12/29 08:03:19;;;;;;;12.32;4.65;;;8.60;99.90;;;;;;4968602;28;20070;-77
2022/12/29 08:05:45;;;;;;;8.38;4.03;;;8.60;99.90;;;;;;4968573;28;20470;-76
2022/12/29 08:08:10;;;;;;;9.88;4.32;;;8.60;99.90;;;;;;4968455;28;20502;-76
2022/12/29 08:10:36;;;;;;;7.97;4.78;;;8.60;99.90;;;;;;4968348;28;20049;-78
2022/12/29 08:13:02;;;;;;;33.33;5.80;;;8.60;99.90;;;;;;4969243;28;20082;-76
2022/12/29 08:15:27;;;;;;;12.32;4.45;;;8.60;99.90;;;;;;4963950;28;20158;-77
2022/12/29 08:17:53;;;;;;;13.10;4.35;;;8.60;99.90;;;;;;4964556;28;20039;-77
2022/12/29 08:20:18;;;;;;;18.45;5.35;;;8.60;99.90;;;;;;4966861;28;20181;-80
2022/12/29 08:22:44;;;;;;;10.52;5.63;;;8.60;99.90;;;;;;4964331;28;20057;-78
2022/12/29 08:25:09;;;;;;;16.80;5.47;;;8.60;99.90;;;;;;4968410;28;20082;-77
2022/12/29 08:27:35;;;;;;;14.60;4.18;;;8.60;99.90;;;;;;4968843;28;20563;-80
2022/12/29 08:30:01;;;;;;;15.60;4.65;;;8.60;99.90;;;;;;4966132;28;20034;-76
2022/12/29 08:32:28;;;;;;;22.15;4.95;;;8.60;99.90;;;;;;4967035;28;20445;-77
2022/12/29 08:34:56;;;;;;;12.23;4.55;;;8.60;99.90;;;;;;4965899;28;20042;-80
2022/12/29 08:37:22;;;;;;;13.57;3.92;;;8.60;99.90;;;;;;4954628;28;20052;-81
2022/12/29 08:39:48;;;;;;;14.48;3.85;;;8.70;99.90;;;;;;4958300;28;20122;-79
2022/12/29 08:42:13;;;;;;;14.73;5.68;;;8.70;99.90;;;;;;4979302;28;20130;-80
2022/12/29 08:44:39;;;;;;;15.10;6.78;;;8.70;99.90;;;;;;4966737;28;20073;-79
2022/12/29 08:47:05;;;;;;;9.57;4.10;;;8.70;99.90;;;;;;4966488;28;20181;-78
2022/12/29 08:49:32;;;;;;;25.58;5.20;;;8.70;99.90;;;;;;4965999;28;20049;-78
2022/12/29 08:51:58;;;;;;;24.27;6.05;;;8.70;99.90;;;;;;4963857;28;20489;-78
2022/12/29 08:54:24;;;;;;;13.68;5.45;;;8.70;99.90;;;;;;4968134;28;20097;-77
2022/12/29 08:56:53;;;;;;;7.78;4.07;;;8.70;99.90;;;;;;4966731;28;20042;-79
2022/12/29 08:59:19;;;;;;;12.57;4.70;;;8.70;99.90;;;;;;4956434;28;20101;-79
2022/12/29 09:01:45;;;;;;;14.65;4.85;;;8.70;99.90;;;;;;4968530;28;20042;-79
2022/12/29 09:04:10;;;;;;;16.95;4.82;;;8.70;99.90;;;;;;4966415;28;20046;-80
2022/12/29 09:06:36;;;;;;;19.48;5.00;;;8.70;99.90;;;;;;4964240;28;20409;-79
2022/12/29 09:09:02;;;;;;;12.38;5.95;;;8.70;99.90;;;;;;4965313;28;20193;-79
2022/12/29 09:11:27;;;;;;;15.45;4.05;;;8.70;99.90;;;;;;4967342;28;20042;-83
2022/12/29 09:13:53;;;;;;;13.40;4.85;;;8.70;99.90;;;;;;4968742;28;20049;-83
2022/12/29 09:16:21;;;;;;;17.75;4.65;;;8.70;99.90;;;;;;4966730;28;20583;-84
2022/12/29 09:18:47;;;;;;;22.67;6.00;;;8.80;99.90;;;;;;4958657;28;20046;-81
2022/12/29 09:21:28;;;;;;;21.67;5.97;;;8.80;99.90;;;;;;4967540;28;20054;-85
2022/12/29 09:23:57;;;;;;;17.83;4.95;;;8.80;99.90;;;;;;4970953;28;20085;-82
2022/12/29 09:26:22;;;;;;;12.35;4.57;;;8.70;99.90;;;;;;4966632;28;20046;-80
2022/12/29 09:28:48;;;;;;;14.65;5.25;;;8.70;99.90;;;;;;4963908;28;20406;-83
2022/12/29 09:31:14;;;;;;;17.25;5.03;;;8.70;99.90;;;;;;4940692;28;20047;-80
2022/12/29 09:33:39;;;;;;;19.75;7.15;;;8.70;99.90;;;;;;4967557;28;20572;-80
2022/12/29 09:36:05;;;;;;;12.15;5.82;;;8.70;99.90;;;;;;4968260;28;20590;-81
2022/12/29 09:38:31;;;;;;;15.80;4.72;;;8.70;99.90;;;;;;4964265;28;20528;-81
2022/12/29 09:41:08;;;;;;;21.05;5.40;;;8.70;99.90;;;;;;4961352;28;20133;-80
2022/12/29 09:43:36;;;;;;;19.98;3.85;;;8.70;99.90;;;;;;4966849;28;20122;-80
2022/12/29 09:46:27;;;;;;;16.33;3.38;;;8.60;99.90;;;;;;4968314;28;20043;-80
2022/12/29 09:49:20;;;;;;;9.50;3.60;;;8.60;99.90;;;;;;4966742;28;20113;-80
2022/12/29 09:51:48;;;;;;;;;;;8.50;99.90;;;;;;4963075;28;20047;-79
2022/12/29 09:54:41;;;;;;;5.68;3.05;;;8.50;99.90;;;;;;4962609;28;20414;-81
2022/12/29 09:57:48;;;;;;;10.75;3.80;;;8.50;99.90;;;;;;4947699;28;20509;-79
2022/12/29 10:00:20;;;;;;;15.80;4.00;;;8.50;99.90;;;;;;4961443;28;20081;-81
2022/12/29 10:02:54;;;;;;;14.75;3.35;;;8.50;99.90;;;;;;4965915;28;20039;-80
2022/12/29 10:05:45;;;;;;;7.80;4.32;;;8.50;99.90;;;;;;4965722;28;20051;-79
2022/12/29 10:08:40;;;;;;;9.43;3.47;;;8.50;99.90;;;;;;4962821;28;20093;-78
2022/12/29 10:11:34;;;;;;;11.13;3.50;;;8.50;99.90;;;;;;4958965;28;20062;-79
2022/12/29 10:14:28;;;;;;;13.18;4.72;;;8.50;99.90;;;;;;4963164;28;20050;-79
2022/12/29 10:17:02;;;;;;;6.82;3.78;;;8.50;99.90;;;;;;4963740;28;20454;-80
2022/12/29 10:19:55;;;;;;;13.30;4.40;;;8.60;99.90;;;;;;4966307;28;20047;-79
2022/12/29 10:22:50;;;;;;;36.40;5.78;;;8.60;99.90;;;;;;4966097;28;20047;-79
2022/12/29 10:25:19;;;;;;;22.75;4.68;;;8.60;99.90;;;;;;4944074;28;20047;-81
2022/12/29 10:27:49;;;;;;;17.52;5.05;;;8.60;99.90;;;;;;4963509;28;20042;-79
2022/12/29 10:30:15;;;;;;;20.50;5.15;;;8.60;99.90;;;;;;4965018;28;20071;-77
2022/12/29 10:32:49;;;;;;;16.17;5.88;;;8.60;99.90;;;;;;4980641;28;20053;-81
2022/12/29 10:35:21;;;;;;;12.57;5.00;;;8.70;99.90;;;;;;4968285;28;20113;-78
2022/12/29 10:38:12;;;;;;;9.07;5.10;;;8.70;99.90;;;;;;4967549;28;20133;-78
2022/12/29 10:40:40;;;;;;;11.52;5.57;;;8.70;99.90;;;;;;4947578;28;20492;-78
2022/12/29 10:43:23;;;;;;;10.45;4.38;;;8.70;99.90;;;;;;4970252;28;20050;-78
2022/12/29 10:45:50;;;;;;;11.38;4.93;;;8.70;99.90;;;;;;4969294;28;20508;-81
2022/12/29 10:48:22;;;;;;;19.67;4.63;;;8.80;99.90;;;;;;4968640;28;20074;-81
2022/12/29 10:50:49;;;;;;;11.18;4.40;;;8.80;99.90;;;;;;4968293;28;20101;-81
2022/12/29 10:53:21;;;;;;;23.38;4.05;;;8.80;99.90;;;;;;4968417;28;20490;-80
2022/12/29 10:55:47;;;;;;;14.48;3.67;;;8.80;99.90;;;;;;4969096;28;20045;-78
2022/12/29 10:58:14;;;;;;;19.67;4.47;;;8.80;99.90;;;;;;4969279;28;20046;-77
2022/12/29 11:00:42;;;;;;;16.42;3.40;;;8.80;99.90;;;;;;4967495;28;20054;-77
2022/12/29 11:03:50;;;;;;;12.00;5.00;;;8.80;99.90;;;;;;4969287;28;20568;-77
2022/12/29 11:06:25;;;;;;;6.15;3.15;;;8.80;99.90;;;;;;4967563;28;20138;-77
2022/12/29 11:08:54;;;;;;;17.42;4.35;;;8.80;99.90;;;;;;4965826;28;20055;-77
2022/12/29 11:11:26;;;;;;;17.17;3.30;;;8.80;99.90;;;;;;4966786;28;20043;-77
2022/12/29 11:14:17;;;;;;;19.38;5.25;;;8.90;99.90;;;;;;4965531;28;20166;-76
2022/12/29 11:16:44;;;;;;;12.23;4.22;;;8.90;99.90;;;;;;4959452;28;20051;-78
2022/12/29 11:19:25;;;;;;;6.35;2.65;;;8.90;99.90;;;;;;4966994;28;20057;-77
2022/12/29 11:21:51;;;;;;;16.90;4.63;;;8.90;99.90;;;;;;4963700;28;20086;-77
2022/12/29 11:24:27;;;;;;;18.08;3.80;;;8.90;99.90;;;;;;4982899;28;20510;-78
2022/12/29 11:26:57;;;;;;;8.20;3.72;;;8.90;99.90;;;;;;4960475;28;20354;-78
2022/12/29 11:29:28;;;;;;;5.22;2.78;;;8.90;99.90;;;;;;4961597;28;20047;-79
2022/12/29 11:31:58;;;;;;;24.15;3.05;;;8.80;99.90;;;;;;4970489;28;20501;-79
2022/12/29 11:34:33;;;;;;;10.75;3.92;;;8.80;99.90;;;;;;4972416;28;21763;-79
2022/12/29 11:37:03;;;;;;;8.85;3.70;;;8.80;99.90;;;;;;4966711;28;20066;-80
2022/12/29 11:39:42;;;;;;;7.70;2.50;;;8.80;99.90;;;;;;4963417;28;20054;-78
2022/12/29 11:42:15;;;;;;;5.40;3.58;;;8.80;99.90;;;;;;4968427;28;20039;-78
2022/12/29 11:44:47;;;;;;;19.65;4.35;;;8.70;99.90;;;;;;4965662;28;20085;-80
2022/12/29 11:47:31;;;;;;;8.38;3.13;;;8.70;99.90;;;;;;4966331;28;20038;-79
2022/12/29 11:50:00;;;;;;;11.85;2.85;;;8.70;99.90;;;;;;4966768;28;20038;-80
2022/12/29 11:52:29;;;;;;;6.80;2.63;;;8.70;99.90;;;;;;4968362;28;20038;-79
2022/12/29 11:54:56;;;;;;;9.63;2.95;;;8.80;99.90;;;;;;4966512;28;20074;-79
2022/12/29 11:57:22;;;;;;;17.40;2.55;;;8.70;99.90;;;;;;4967948;28;20051;-80
2022/12/29 11:59:55;;;;;;;9.63;4.18;;;8.70;99.90;;;;;;4966571;28;20047;-79
2022/12/29 12:02:21;;;;;;;;;;;8.70;99.90;;;;;;4981179;28;20328;-79
2022/12/29 12:04:50;;;;;;;8.90;3.20;;;8.80;99.90;;;;;;4968069;28;20277;-80
2022/12/29 12:07:22;;;;;;;6.70;2.65;;;8.70;99.90;;;;;;4969256;28;20043;-80
2022/12/29 12:09:57;;;;;;;15.57;3.22;;;8.70;99.90;;;;;;4960616;28;20505;-78
2022/12/29 12:12:34;;;;;;;18.63;3.05;;;8.70;99.90;;;;;;4974784;28;20413;-80
2022/12/29 12:15:02;;;;;;;10.70;1.58;;;8.70;99.90;;;;;;4968972;28;20042;-80
2022/12/29 12:17:39;;;;;;;4.43;1.42;;;8.80;99.90;;;;;;4972377;28;20162;-79
2022/12/29 12:20:05;;;;;;;11.73;4.38;;;8.70;99.90;;;;;;4965549;28;20039;-79
2022/12/29 12:22:37;;;;;;;3.65;1.58;;;8.70;99.90;;;;;;4966097;28;20081;-78
2022/12/29 12:25:10;;;;;;;15.07;3.10;;;8.70;99.90;;;;;;4965757;28;20413;-79
2022/12/29 12:27:43;;;;;;;7.00;1.80;;;8.70;99.90;;;;;;4959497;28;20177;-78
2022/12/29 12:30:23;;;;;;;4.15;1.73;;;8.70;99.90;;;;;;4961062;28;20057;-80
2022/12/29 12:32:52;;;;;;;5.45;2.28;;;8.70;99.90;;;;;;4967345;28;20535;-81
2022/12/29 12:35:50;;;;;;;4.72;1.75;;;8.70;99.90;;;;;;4967135;28;20068;-80
2022/12/29 12:38:42;;;;;;;8.35;2.05;;;8.70;99.90;;;;;;4963991;28;20497;-81
2022/12/29 12:41:35;;;;;;;7.40;1.75;;;8.70;99.90;;;;;;4960387;28;20107;-80
2022/12/29 12:44:20;;;;;;;18.50;2.63;;;8.70;99.90;;;;;;4965719;28;20133;-79
2022/12/29 12:47:30;;;;;;;3.92;1.73;;;8.70;99.90;;;;;;4967584;28;20333;-79
2022/12/29 12:49:55;;;;;;;3.78;2.15;;;8.70;99.90;;;;;;4948221;28;20614;-79
2022/12/29 12:52:21;;;;;;;5.82;1.75;;;8.70;99.90;;;;;;4967532;28;20074;-80
2022/12/29 12:55:04;;;;;;;3.35;1.48;;;8.70;99.90;;;;;;4967016;28;20101;-79
2022/12/29 12:57:36;;;;;;;14.68;2.53;;;8.60;99.90;;;;;;4965681;28;20062;-79
2022/12/29 13:00:17;;;;;;;5.45;2.08;;;8.60;99.90;;;;;;4965207;28;20101;-80
2022/12/29 13:03:09;;;;;;;5.15;3.10;;;8.60;99.90;;;;;;4965716;28;20049;-79
2022/12/29 13:05:37;;;;;;;13.82;3.25;;;8.60;99.90;;;;;;4964732;28;20113;-80
2022/12/29 13:08:27;;;;;;;10.80;2.35;;;8.60;99.90;;;;;;4965608;28;20051;-80
2022/12/29 13:11:04;;;;;;;10.57;1.23;;;8.60;99.90;;;;;;4965950;28;20046;-80
2022/12/29 13:13:54;;;;;;;7.32;2.03;;;8.60;99.90;;;;;;4981733;28;20046;-80
2022/12/29 13:16:32;;;;;;;9.82;1.80;;;8.60;99.90;;;;;;4965996;28;20043;-81
2022/12/29 13:19:10;;;;;;;8.75;2.28;;;8.50;99.90;;;;;;4965852;28;20113;-80
2022/12/29 13:22:00;;;;;;;5.25;2.85;;;8.50;99.90;;;;;;4967461;28;20102;-79
2022/12/29 13:24:46;;;;;;;4.57;1.75;;;8.50;99.90;;;;;;4965057;28;20043;-80
2022/12/29 13:27:18;;;;;;;9.93;1.80;;;8.50;99.90;;;;;;4965121;28;20097;-80
2022/12/29 13:30:04;;;;;;;6.50;2.53;;;8.50;99.90;;;;;;4964815;28;20081;-79
2022/12/29 13:32:47;;;;;;;3.42;1.35;;;8.50;99.90;;;;;;4967458;28;20274;-80
2022/12/29 13:35:48;;;;;;;6.47;1.90;;;8.50;99.90;;;;;;4961415;28;20046;-80
2022/12/29 13:38:48;;;;;;;19.80;1.52;;;8.50;99.90;;;;;;4948072;28;20046;-80
2022/12/29 13:41:35;;;;;;;12.20;2.42;;;8.50;99.90;;;;;;4963719;28;20496;-80
2022/12/29 13:44:03;;;;;;;9.75;1.98;;;8.50;99.90;;;;;;4964644;28;20053;-80
2022/12/29 13:46:35;;;;;;;13.60;3.05;;;8.50;99.90;;;;;;4965241;28;20429;-80